createdAt,value
2022-08-14T00:01:13.423Z,24.20
2022-08-14T00:06:28.735Z,24.30
2022-08-14T00:11:32.172Z,24.30
2022-08-14T00:16:41.646Z,24.20
2022-08-14T00:21:50.862Z,24.30
2022-08-14T00:26:54.812Z,24.20
2022-08-14T00:31:57.182Z,24.20
2022-08-14T00:36:59.563Z,24.10
2022-08-14T00:42:05.443Z,24.00
2022-08-14T00:47:10.585Z,23.90
2022-08-14T00:52:18.237Z,23.80
2022-08-14T00:57:22.744Z,23.80
2022-08-14T01:02:27.748Z,23.70
2022-08-14T01:07:38.693Z,23.80
2022-08-14T01:12:49.728Z,23.80
2022-08-14T01:18:14.045Z,23.70
2022-08-14T01:23:19.130Z,23.70
2022-08-14T01:28:46.470Z,23.70
2022-08-14T01:35:15.863Z,23.60
2022-08-14T01:39:16.104Z,23.60
2022-08-14T01:44:32.438Z,23.60
2022-08-14T01:49:45.757Z,23.60
2022-08-14T01:54:58.054Z,23.60
2022-08-14T02:00:00.780Z,23.50
2022-08-14T02:05:11.784Z,23.40
2022-08-14T02:10:15.600Z,23.40
2022-08-14T02:15:21.847Z,23.40
2022-08-14T02:20:24.150Z,23.40
2022-08-14T02:25:29.971Z,23.40
2022-08-14T02:30:34.827Z,23.40
2022-08-14T02:35:43.591Z,23.10
2022-08-14T02:40:49.030Z,23.10
2022-08-14T02:45:52.002Z,23.10
2022-08-14T02:50:54.357Z,23.10
2022-08-14T02:56:02.680Z,23.10
2022-08-14T03:01:09.063Z,23.20
2022-08-14T03:06:13.626Z,23.20
2022-08-14T03:11:23.179Z,23.20
2022-08-14T03:16:27.234Z,23.20
2022-08-14T03:21:31.526Z,23.10
2022-08-14T03:26:37.304Z,22.80
2022-08-14T03:31:43.647Z,22.60
2022-08-14T03:37:50.715Z,22.50
2022-08-14T03:42:19.405Z,22.60
2022-08-14T03:47:21.982Z,22.60
2022-08-14T03:52:55.489Z,22.70
2022-08-14T03:58:00.523Z,22.90
2022-08-14T04:03:06.532Z,22.90
2022-08-14T04:08:22.913Z,22.80
2022-08-14T04:13:35.473Z,22.80
2022-08-14T04:18:43.644Z,23.00
2022-08-14T04:23:48.991Z,22.90
2022-08-14T04:29:13.828Z,23.00
2022-08-14T04:34:23.953Z,23.20
2022-08-14T04:39:56.574Z,23.30
2022-08-14T04:45:00.959Z,23.40
2022-08-14T04:50:05.772Z,23.50
2022-08-14T04:55:08.548Z,23.60
2022-08-14T05:00:16.121Z,23.80
2022-08-14T05:05:21.117Z,23.90
2022-08-14T05:10:26.155Z,24.00
2022-08-14T05:15:36.583Z,23.90
2022-08-14T05:21:54.860Z,24.00
2022-08-14T05:26:13.355Z,24.10
2022-08-14T05:31:20.411Z,24.30
2022-08-14T05:36:23.920Z,24.50
2022-08-14T05:41:31.992Z,24.70
2022-08-14T05:46:49.998Z,24.90
2022-08-14T05:51:52.274Z,25.10
2022-08-14T05:56:55.185Z,25.40
2022-08-14T06:01:57.599Z,25.30
2022-08-14T06:07:00.606Z,25.30
2022-08-14T06:12:04.498Z,25.10
2022-08-14T06:17:07.771Z,25.20
2022-08-14T06:22:10.020Z,25.40
2022-08-14T06:27:15.108Z,25.60
2022-08-14T06:32:36.940Z,25.90
2022-08-14T06:37:44.019Z,26.10
2022-08-14T06:42:49.429Z,26.20
2022-08-14T06:47:52.182Z,26.50
2022-08-14T06:52:55.929Z,26.90
2022-08-14T06:57:58.378Z,26.50
2022-08-14T07:03:21.772Z,26.50
2022-08-14T07:08:26.597Z,27.90
2022-08-14T07:13:32.321Z,30.90
2022-08-14T07:18:36.255Z,33.20
2022-08-14T07:23:39.968Z,34.30
2022-08-14T07:28:43.553Z,34.80
2022-08-14T07:33:50.532Z,34.60
2022-08-14T07:38:53.382Z,33.50
2022-08-14T07:43:57.705Z,32.60
2022-08-14T07:49:00.763Z,31.70
2022-08-14T07:54:04.262Z,30.80
2022-08-14T07:59:12.823Z,30.40
2022-08-14T08:04:16.684Z,29.70
2022-08-14T08:09:32.447Z,29.10
2022-08-14T08:14:55.668Z,29.10
2022-08-14T08:19:57.482Z,29.00
2022-08-14T08:25:00.712Z,28.50
2022-08-14T08:30:09.953Z,28.40
2022-08-14T08:35:20.468Z,27.90
2022-08-14T08:40:31.055Z,27.70
2022-08-14T08:45:36.360Z,27.60
2022-08-14T08:55:43.167Z,27.20
2022-08-14T09:00:50.042Z,26.90
2022-08-14T09:05:58.524Z,26.70
2022-08-14T09:11:20.014Z,26.50
2022-08-14T09:16:26.535Z,26.50
2022-08-14T09:21:31.708Z,26.50
2022-08-14T09:26:34.820Z,26.60
2022-08-14T09:31:42.548Z,26.40
2022-08-14T09:36:52.014Z,26.20
2022-08-14T09:42:21.104Z,26.30
2022-08-14T09:47:47.088Z,26.10
2022-08-14T09:52:55.132Z,26.30
2022-08-14T09:58:22.557Z,26.20
2022-08-14T10:03:33.340Z,26.20
2022-08-14T10:08:51.159Z,26.20
2022-08-14T10:13:57.802Z,25.90
2022-08-14T10:19:07.516Z,25.80
2022-08-14T10:24:23.320Z,26.00
2022-08-14T10:29:35.480Z,26.20
2022-08-14T10:34:40.883Z,26.30
2022-08-14T10:40:01.256Z,26.20
2022-08-14T10:45:35.573Z,26.10
2022-08-14T10:50:51.546Z,26.20
2022-08-14T10:55:59.624Z,26.30
2022-08-14T11:01:08.041Z,26.40
2022-08-14T11:06:16.343Z,26.50
2022-08-14T11:11:19.963Z,26.70
2022-08-14T11:16:23.058Z,26.60
2022-08-14T11:21:30.662Z,26.40
2022-08-14T11:26:38.774Z,26.50
2022-08-14T11:31:41.681Z,26.40
2022-08-14T11:37:02.278Z,26.40
2022-08-14T11:42:57.912Z,26.50
2022-08-14T11:47:35.129Z,26.30
2022-08-14T11:52:50.715Z,26.40
2022-08-14T11:58:09.502Z,26.40
2022-08-14T12:03:14.789Z,26.10
2022-08-14T12:08:24.684Z,26.30
2022-08-14T12:13:34.701Z,26.10
2022-08-14T12:18:40.681Z,26.30
2022-08-14T12:23:50.574Z,26.10
2022-08-14T12:29:08.036Z,25.80
2022-08-14T12:34:13.383Z,25.80
2022-08-14T12:39:24.071Z,25.70
2022-08-14T12:44:34.552Z,25.80
2022-08-14T12:49:37.242Z,26.00
2022-08-14T12:54:45.297Z,26.10
2022-08-14T13:00:22.453Z,26.00
2022-08-14T13:05:32.310Z,26.00
2022-08-14T13:10:46.941Z,26.00
2022-08-14T13:15:57.173Z,26.20
2022-08-14T13:21:02.275Z,26.20
2022-08-14T13:26:05.012Z,26.20
2022-08-14T13:31:11.814Z,26.30
2022-08-14T13:36:23.685Z,26.30
2022-08-14T13:41:36.146Z,26.00
2022-08-14T13:46:38.824Z,26.30
2022-08-14T13:51:47.357Z,26.10
2022-08-14T13:56:51.751Z,26.10
2022-08-14T14:01:56.133Z,25.90
2022-08-14T14:07:03.426Z,25.80
2022-08-14T14:12:37.317Z,25.90
2022-08-14T14:17:31.636Z,25.90
2022-08-14T14:23:01.029Z,26.00
2022-08-14T14:27:59.523Z,26.10
2022-08-14T14:33:08.680Z,26.00
2022-08-14T14:38:31.005Z,25.80
2022-08-14T14:43:38.987Z,25.80
2022-08-14T14:48:46.613Z,25.80
2022-08-14T14:53:58.399Z,26.00
2022-08-14T14:59:01.115Z,26.00
2022-08-14T15:04:08.015Z,26.30
2022-08-14T15:09:23.692Z,26.20
2022-08-14T15:14:54.699Z,25.90
2022-08-14T15:19:56.985Z,26.10
2022-08-14T15:24:59.716Z,26.20
2022-08-14T15:30:06.609Z,26.40
2022-08-14T15:35:12.121Z,26.50
2022-08-14T15:40:16.411Z,26.60
2022-08-14T15:45:24.839Z,26.50
2022-08-14T15:50:29.246Z,26.40
2022-08-14T15:55:31.588Z,26.40
2022-08-14T16:00:56.687Z,26.50
2022-08-14T16:05:59.621Z,26.50
2022-08-14T16:11:07.019Z,26.50
2022-08-14T16:16:34.736Z,26.30
2022-08-14T16:21:40.949Z,26.30
2022-08-14T16:27:05.273Z,26.20
2022-08-14T16:32:32.121Z,26.20
2022-08-14T16:37:34.266Z,26.10
2022-08-14T16:43:04.733Z,26.00
2022-08-14T16:48:03.696Z,25.90
2022-08-14T16:53:26.286Z,25.90
2022-08-14T16:58:30.540Z,25.90
2022-08-14T17:03:40.890Z,25.70
2022-08-14T17:08:46.641Z,25.60
2022-08-14T17:14:00.780Z,25.50
2022-08-14T17:19:05.628Z,25.40
2022-08-14T17:24:57.041Z,25.30
2022-08-14T17:29:44.551Z,25.30
2022-08-14T17:34:57.671Z,25.20
2022-08-14T17:40:19.386Z,25.10
2022-08-14T17:45:27.026Z,24.90
2022-08-14T17:50:59.990Z,24.90
2022-08-14T17:56:04.786Z,24.90
2022-08-14T18:01:07.767Z,24.90
2022-08-14T18:06:39.059Z,24.90
2022-08-14T18:11:45.625Z,24.80
2022-08-14T18:16:50.716Z,24.60
2022-08-14T18:21:57.433Z,24.60
2022-08-14T18:27:02.835Z,24.60
2022-08-14T18:32:31.366Z,24.60
2022-08-14T18:37:34.355Z,24.50
2022-08-14T18:42:36.596Z,24.50
2022-08-14T18:48:05.180Z,24.50
2022-08-14T18:58:58.864Z,24.50
2022-08-14T19:04:02.314Z,24.30
2022-08-14T19:09:07.467Z,24.30
2022-08-14T19:14:14.952Z,24.40
2022-08-14T19:19:18.915Z,24.30
2022-08-14T19:24:30.108Z,24.30
2022-08-14T19:29:37.552Z,24.30
2022-08-14T19:34:52.320Z,24.20
2022-08-14T19:45:46.299Z,24.20
2022-08-14T19:50:48.888Z,24.30
2022-08-14T19:56:02.295Z,24.20
2022-08-14T20:01:08.637Z,24.10
2022-08-14T20:06:12.284Z,24.00
2022-08-14T20:12:00.858Z,23.80
2022-08-14T20:17:05.270Z,23.60
2022-08-14T20:22:36.726Z,23.60
2022-08-14T20:32:55.185Z,23.60
2022-08-14T20:38:29.680Z,23.60
2022-08-14T20:48:50.938Z,23.50
2022-08-14T20:53:58.301Z,23.40
2022-08-14T21:10:04.828Z,23.20
2022-08-14T21:15:20.359Z,23.10
2022-08-14T21:20:26.148Z,23.00
2022-08-14T21:25:32.201Z,23.10
2022-08-14T21:30:51.551Z,23.00
2022-08-14T21:35:57.507Z,22.90
2022-08-14T21:41:41.703Z,23.00
2022-08-14T21:46:29.698Z,23.00
2022-08-14T21:51:55.467Z,23.00
2022-08-14T21:56:56.777Z,22.90
2022-08-14T22:02:03.676Z,22.80
2022-08-14T22:07:12.217Z,22.90
2022-08-14T22:12:57.644Z,22.70
2022-08-14T22:17:38.428Z,22.70
2022-08-14T22:22:46.846Z,22.70
2022-08-14T22:27:55.437Z,22.60
2022-08-14T22:33:00.231Z,22.60
2022-08-14T22:38:35.014Z,22.50
2022-08-14T22:43:25.291Z,22.50
2022-08-14T22:48:27.595Z,22.40
2022-08-14T22:53:32.199Z,22.40
2022-08-14T22:58:35.080Z,22.20
2022-08-14T23:03:42.224Z,22.10
2022-08-14T23:09:01.954Z,22.00
2022-08-14T23:14:07.287Z,22.00
2022-08-14T23:19:15.323Z,21.90
2022-08-14T23:24:27.028Z,21.90
2022-08-14T23:29:31.431Z,21.90
2022-08-14T23:34:39.470Z,21.90
2022-08-14T23:39:50.405Z,21.90
2022-08-14T23:44:55.708Z,21.90
2022-08-14T23:50:03.365Z,22.10
2022-08-14T23:55:11.191Z,22.00
